sensor_id;sensor_type;location;lat;lon;timestamp;P1;durP1;ratioP1;P2;durP2;ratioP2
16854;SDS011;8543;54.522;18.550;2023-02-02T00:01:20;4.70;;;1.70;;
16854;SDS011;8543;54.522;18.550;2023-02-02T00:03:46;6.80;;;2.10;;
16854;SDS011;8543;54.522;18.550;2023-02-02T00:06:14;6.00;;;2.20;;
16854;SDS011;8543;54.522;18.550;2023-02-02T00:08:41;7.00;;;2.20;;
16854;SDS011;8543;54.522;18.550;2023-02-02T00:11:07;13.40;;;3.40;;
16854;SDS011;8543;54.522;18.550;2023-02-02T00:13:32;9.10;;;2.40;;
16854;SDS011;8543;54.522;18.550;2023-02-02T00:15:58;12.60;;;3.30;;
16854;SDS011;8543;54.522;18.550;2023-02-02T00:18:26;10.00;;;3.60;;
16854;SDS011;8543;54.522;18.550;2023-02-02T00:20:51;13.20;;;3.10;;
16854;SDS011;8543;54.522;18.550;2023-02-02T00:23:17;12.60;;;2.90;;
16854;SDS011;8543;54.522;18.550;2023-02-02T00:25:43;14.50;;;3.70;;
16854;SDS011;8543;54.522;18.550;2023-02-02T00:28:08;11.20;;;3.40;;
16854;SDS011;8543;54.522;18.550;2023-02-02T00:30:34;9.20;;;3.30;;
16854;SDS011;8543;54.522;18.550;2023-02-02T00:32:59;11.00;;;3.10;;
16854;SDS011;8543;54.522;18.550;2023-02-02T00:35:25;14.70;;;3.90;;
16854;SDS011;8543;54.522;18.550;2023-02-02T00:37:50;14.80;;;3.10;;
16854;SDS011;8543;54.522;18.550;2023-02-02T00:40:16;13.60;;;3.60;;
16854;SDS011;8543;54.522;18.550;2023-02-02T00:42:41;11.60;;;3.30;;
16854;SDS011;8543;54.522;18.550;2023-02-02T00:45:08;14.90;;;3.30;;
16854;SDS011;8543;54.522;18.550;2023-02-02T00:47:44;14.60;;;3.90;;
16854;SDS011;8543;54.522;18.550;2023-02-02T00:50:15;17.20;;;3.50;;
16854;SDS011;8543;54.522;18.550;2023-02-02T00:52:43;14.20;;;3.30;;
16854;SDS011;8543;54.522;18.550;2023-02-02T00:55:09;17.70;;;3.50;;
16854;SDS011;8543;54.522;18.550;2023-02-02T00:57:36;17.20;;;4.40;;
16854;SDS011;8543;54.522;18.550;2023-02-02T01:00:03;16.40;;;3.40;;
16854;SDS011;8543;54.522;18.550;2023-02-02T01:02:31;12.90;;;3.30;;
16854;SDS011;8543;54.522;18.550;2023-02-02T01:04:57;11.90;;;4.00;;
16854;SDS011;8543;54.522;18.550;2023-02-02T01:07:23;16.10;;;3.70;;
16854;SDS011;8543;54.522;18.550;2023-02-02T01:09:48;19.70;;;3.50;;
16854;SDS011;8543;54.522;18.550;2023-02-02T01:12:14;17.80;;;4.00;;
16854;SDS011;8543;54.522;18.550;2023-02-02T01:14:39;13.80;;;3.40;;
16854;SDS011;8543;54.522;18.550;2023-02-02T01:17:05;16.40;;;4.20;;
16854;SDS011;8543;54.522;18.550;2023-02-02T01:19:30;14.70;;;3.50;;
16854;SDS011;8543;54.522;18.550;2023-02-02T01:21:56;13.40;;;3.30;;
16854;SDS011;8543;54.522;18.550;2023-02-02T01:24:21;17.70;;;3.40;;
16854;SDS011;8543;54.522;18.550;2023-02-02T01:26:47;10.90;;;3.40;;
16854;SDS011;8543;54.522;18.550;2023-02-02T01:29:12;17.90;;;3.10;;
16854;SDS011;8543;54.522;18.550;2023-02-02T01:31:39;18.60;;;3.90;;
16854;SDS011;8543;54.522;18.550;2023-02-02T01:34:06;16.00;;;3.60;;
16854;SDS011;8543;54.522;18.550;2023-02-02T01:36:32;21.50;;;5.10;;
16854;SDS011;8543;54.522;18.550;2023-02-02T01:38:57;9.60;;;2.70;;
16854;SDS011;8543;54.522;18.550;2023-02-02T01:41:23;16.50;;;3.10;;
16854;SDS011;8543;54.522;18.550;2023-02-02T01:43:54;12.40;;;3.40;;
16854;SDS011;8543;54.522;18.550;2023-02-02T01:46:22;12.40;;;2.80;;
16854;SDS011;8543;54.522;18.550;2023-02-02T01:48:51;16.40;;;3.50;;
16854;SDS011;8543;54.522;18.550;2023-02-02T01:51:21;13.60;;;3.40;;
16854;SDS011;8543;54.522;18.550;2023-02-02T01:53:50;16.60;;;3.30;;
16854;SDS011;8543;54.522;18.550;2023-02-02T01:56:25;12.20;;;2.80;;
16854;SDS011;8543;54.522;18.550;2023-02-02T01:58:53;9.60;;;3.00;;
16854;SDS011;8543;54.522;18.550;2023-02-02T02:01:18;12.90;;;2.90;;
16854;SDS011;8543;54.522;18.550;2023-02-02T02:03:44;9.70;;;2.90;;
16854;SDS011;8543;54.522;18.550;2023-02-02T02:06:11;12.10;;;3.40;;
16854;SDS011;8543;54.522;18.550;2023-02-02T02:08:44;15.90;;;2.90;;
16854;SDS011;8543;54.522;18.550;2023-02-02T02:11:31;12.00;;;3.60;;
16854;SDS011;8543;54.522;18.550;2023-02-02T02:13:58;12.70;;;2.80;;
16854;SDS011;8543;54.522;18.550;2023-02-02T02:16:48;14.70;;;3.20;;
16854;SDS011;8543;54.522;18.550;2023-02-02T02:22:05;9.50;;;3.20;;
16854;SDS011;8543;54.522;18.550;2023-02-02T02:25:09;10.00;;;2.40;;
16854;SDS011;8543;54.522;18.550;2023-02-02T02:39:15;12.60;;;2.70;;
16854;SDS011;8543;54.522;18.550;2023-02-02T02:41:47;14.10;;;3.50;;
16854;SDS011;8543;54.522;18.550;2023-02-02T02:44:15;13.70;;;2.90;;
16854;SDS011;8543;54.522;18.550;2023-02-02T02:46:41;12.70;;;3.70;;
16854;SDS011;8543;54.522;18.550;2023-02-02T02:49:07;15.90;;;3.30;;
16854;SDS011;8543;54.522;18.550;2023-02-02T02:51:38;12.90;;;2.90;;
16854;SDS011;8543;54.522;18.550;2023-02-02T02:54:07;12.70;;;2.80;;
16854;SDS011;8543;54.522;18.550;2023-02-02T02:56:40;8.00;;;2.60;;
16854;SDS011;8543;54.522;18.550;2023-02-02T02:59:25;8.60;;;2.70;;
16854;SDS011;8543;54.522;18.550;2023-02-02T03:04:33;9.80;;;2.80;;
16854;SDS011;8543;54.522;18.550;2023-02-02T03:07:06;10.20;;;2.60;;
16854;SDS011;8543;54.522;18.550;2023-02-02T03:09:38;13.10;;;3.00;;
16854;SDS011;8543;54.522;18.550;2023-02-02T03:12:06;13.20;;;3.10;;
16854;SDS011;8543;54.522;18.550;2023-02-02T03:14:35;9.60;;;2.70;;
16854;SDS011;8543;54.522;18.550;2023-02-02T03:17:01;12.50;;;2.70;;
16854;SDS011;8543;54.522;18.550;2023-02-02T03:19:27;16.70;;;3.10;;
16854;SDS011;8543;54.522;18.550;2023-02-02T03:21:52;8.10;;;2.40;;
16854;SDS011;8543;54.522;18.550;2023-02-02T03:24:18;8.90;;;2.70;;
16854;SDS011;8543;54.522;18.550;2023-02-02T03:26:43;7.20;;;2.30;;
16854;SDS011;8543;54.522;18.550;2023-02-02T03:29:09;8.80;;;2.40;;
16854;SDS011;8543;54.522;18.550;2023-02-02T03:31:35;7.10;;;2.00;;
16854;SDS011;8543;54.522;18.550;2023-02-02T03:34:00;9.00;;;2.50;;
16854;SDS011;8543;54.522;18.550;2023-02-02T03:36:26;9.10;;;2.50;;
16854;SDS011;8543;54.522;18.550;2023-02-02T03:38:52;7.30;;;2.10;;
16854;SDS011;8543;54.522;18.550;2023-02-02T03:41:17;10.10;;;2.70;;
16854;SDS011;8543;54.522;18.550;2023-02-02T03:43:42;6.90;;;2.20;;
16854;SDS011;8543;54.522;18.550;2023-02-02T03:46:08;14.10;;;2.70;;
16854;SDS011;8543;54.522;18.550;2023-02-02T03:48:34;8.40;;;2.60;;
16854;SDS011;8543;54.522;18.550;2023-02-02T03:51:04;8.20;;;2.70;;
16854;SDS011;8543;54.522;18.550;2023-02-02T03:53:30;7.70;;;2.50;;
16854;SDS011;8543;54.522;18.550;2023-02-02T03:55:56;10.30;;;2.60;;
16854;SDS011;8543;54.522;18.550;2023-02-02T03:58:21;8.90;;;2.80;;
16854;SDS011;8543;54.522;18.550;2023-02-02T04:00:47;10.30;;;2.60;;
16854;SDS011;8543;54.522;18.550;2023-02-02T04:03:12;11.10;;;2.70;;
16854;SDS011;8543;54.522;18.550;2023-02-02T04:05:38;8.70;;;2.20;;
16854;SDS011;8543;54.522;18.550;2023-02-02T04:08:03;9.50;;;2.10;;
16854;SDS011;8543;54.522;18.550;2023-02-02T04:10:29;8.10;;;2.60;;
16854;SDS011;8543;54.522;18.550;2023-02-02T04:12:54;8.60;;;2.20;;
16854;SDS011;8543;54.522;18.550;2023-02-02T04:15:20;6.40;;;2.10;;
16854;SDS011;8543;54.522;18.550;2023-02-02T04:17:45;12.20;;;2.60;;
16854;SDS011;8543;54.522;18.550;2023-02-02T04:20:10;7.70;;;2.40;;
16854;SDS011;8543;54.522;18.550;2023-02-02T04:22:36;8.50;;;2.10;;
16854;SDS011;8543;54.522;18.550;2023-02-02T04:25:01;7.90;;;2.10;;
16854;SDS011;8543;54.522;18.550;2023-02-02T04:27:27;6.90;;;1.90;;
16854;SDS011;8543;54.522;18.550;2023-02-02T04:29:55;6.60;;;2.10;;
16854;SDS011;8543;54.522;18.550;2023-02-02T04:32:21;6.40;;;2.80;;
16854;SDS011;8543;54.522;18.550;2023-02-02T04:34:46;6.00;;;2.10;;
16854;SDS011;8543;54.522;18.550;2023-02-02T04:37:11;5.20;;;1.90;;
16854;SDS011;8543;54.522;18.550;2023-02-02T04:39:37;4.30;;;1.90;;
16854;SDS011;8543;54.522;18.550;2023-02-02T04:42:02;5.00;;;2.00;;
16854;SDS011;8543;54.522;18.550;2023-02-02T04:44:28;9.00;;;2.30;;
16854;SDS011;8543;54.522;18.550;2023-02-02T04:46:53;4.50;;;1.70;;
16854;SDS011;8543;54.522;18.550;2023-02-02T04:49:19;5.30;;;2.20;;
16854;SDS011;8543;54.522;18.550;2023-02-02T04:51:45;6.30;;;1.90;;
16854;SDS011;8543;54.522;18.550;2023-02-02T04:54:11;7.20;;;2.10;;
16854;SDS011;8543;54.522;18.550;2023-02-02T04:56:37;6.80;;;1.50;;
16854;SDS011;8543;54.522;18.550;2023-02-02T04:59:02;5.10;;;1.80;;
16854;SDS011;8543;54.522;18.550;2023-02-02T05:01:27;4.70;;;1.80;;
16854;SDS011;8543;54.522;18.550;2023-02-02T05:03:55;4.00;;;1.70;;
16854;SDS011;8543;54.522;18.550;2023-02-02T05:06:21;4.70;;;2.10;;
16854;SDS011;8543;54.522;18.550;2023-02-02T05:08:47;4.90;;;1.80;;
16854;SDS011;8543;54.522;18.550;2023-02-02T05:11:14;4.60;;;1.80;;
16854;SDS011;8543;54.522;18.550;2023-02-02T05:13:45;6.60;;;2.20;;
16854;SDS011;8543;54.522;18.550;2023-02-02T05:16:11;7.70;;;2.20;;
16854;SDS011;8543;54.522;18.550;2023-02-02T05:18:37;3.80;;;1.60;;
16854;SDS011;8543;54.522;18.550;2023-02-02T05:21:02;4.00;;;1.70;;
16854;SDS011;8543;54.522;18.550;2023-02-02T05:23:28;5.80;;;2.20;;
16854;SDS011;8543;54.522;18.550;2023-02-02T05:25:55;5.40;;;1.80;;
16854;SDS011;8543;54.522;18.550;2023-02-02T05:28:22;4.60;;;2.00;;
16854;SDS011;8543;54.522;18.550;2023-02-02T05:30:48;4.30;;;2.00;;
16854;SDS011;8543;54.522;18.550;2023-02-02T05:33:14;5.90;;;2.00;;
16854;SDS011;8543;54.522;18.550;2023-02-02T05:35:43;4.00;;;1.60;;
16854;SDS011;8543;54.522;18.550;2023-02-02T05:38:09;6.40;;;2.20;;
16854;SDS011;8543;54.522;18.550;2023-02-02T05:40:35;5.20;;;2.50;;
16854;SDS011;8543;54.522;18.550;2023-02-02T05:43:00;8.00;;;2.60;;
16854;SDS011;8543;54.522;18.550;2023-02-02T05:45:25;5.10;;;2.40;;
16854;SDS011;8543;54.522;18.550;2023-02-02T05:47:52;5.60;;;2.50;;
16854;SDS011;8543;54.522;18.550;2023-02-02T05:50:19;6.20;;;2.60;;
16854;SDS011;8543;54.522;18.550;2023-02-02T05:52:44;1.40;;;1.30;;
16854;SDS011;8543;54.522;18.550;2023-02-02T05:55:11;1.30;;;1.20;;
16854;SDS011;8543;54.522;18.550;2023-02-02T05:57:36;0.90;;;0.90;;
16854;SDS011;8543;54.522;18.550;2023-02-02T06:00:02;1.10;;;1.00;;
16854;SDS011;8543;54.522;18.550;2023-02-02T06:02:29;1.20;;;0.90;;
16854;SDS011;8543;54.522;18.550;2023-02-02T06:04:54;1.30;;;0.90;;
16854;SDS011;8543;54.522;18.550;2023-02-02T06:07:19;2.20;;;1.20;;
16854;SDS011;8543;54.522;18.550;2023-02-02T06:09:45;1.30;;;1.10;;
16854;SDS011;8543;54.522;18.550;2023-02-02T06:12:10;1.20;;;1.10;;
16854;SDS011;8543;54.522;18.550;2023-02-02T06:14:36;3.20;;;1.20;;
16854;SDS011;8543;54.522;18.550;2023-02-02T06:17:01;1.80;;;1.40;;
16854;SDS011;8543;54.522;18.550;2023-02-02T06:19:26;1.70;;;1.30;;
16854;SDS011;8543;54.522;18.550;2023-02-02T06:21:52;2.50;;;1.50;;
16854;SDS011;8543;54.522;18.550;2023-02-02T06:24:17;1.80;;;1.40;;
16854;SDS011;8543;54.522;18.550;2023-02-02T06:26:43;2.10;;;1.40;;
16854;SDS011;8543;54.522;18.550;2023-02-02T06:29:11;2.00;;;1.50;;
16854;SDS011;8543;54.522;18.550;2023-02-02T06:31:38;3.70;;;2.00;;
16854;SDS011;8543;54.522;18.550;2023-02-02T06:34:03;3.10;;;1.90;;
16854;SDS011;8543;54.522;18.550;2023-02-02T06:36:29;4.40;;;2.20;;
16854;SDS011;8543;54.522;18.550;2023-02-02T06:38:55;5.30;;;2.80;;
16854;SDS011;8543;54.522;18.550;2023-02-02T06:41:21;7.30;;;3.20;;
16854;SDS011;8543;54.522;18.550;2023-02-02T06:43:47;5.30;;;3.30;;
16854;SDS011;8543;54.522;18.550;2023-02-02T06:46:13;5.90;;;3.60;;
16854;SDS011;8543;54.522;18.550;2023-02-02T06:48:39;5.90;;;2.90;;
16854;SDS011;8543;54.522;18.550;2023-02-02T06:51:05;6.20;;;3.80;;
16854;SDS011;8543;54.522;18.550;2023-02-02T06:53:31;7.00;;;3.00;;
16854;SDS011;8543;54.522;18.550;2023-02-02T06:55:58;5.60;;;2.70;;
16854;SDS011;8543;54.522;18.550;2023-02-02T06:58:25;5.60;;;3.10;;
16854;SDS011;8543;54.522;18.550;2023-02-02T07:00:51;4.50;;;2.70;;
16854;SDS011;8543;54.522;18.550;2023-02-02T07:03:17;5.10;;;2.90;;
16854;SDS011;8543;54.522;18.550;2023-02-02T07:05:45;5.50;;;2.80;;
16854;SDS011;8543;54.522;18.550;2023-02-02T07:08:14;6.20;;;2.90;;
16854;SDS011;8543;54.522;18.550;2023-02-02T07:10:39;3.90;;;2.30;;
16854;SDS011;8543;54.522;18.550;2023-02-02T07:13:05;5.70;;;2.90;;
16854;SDS011;8543;54.522;18.550;2023-02-02T07:15:33;6.60;;;3.30;;
16854;SDS011;8543;54.522;18.550;2023-02-02T07:17:59;5.80;;;3.10;;
16854;SDS011;8543;54.522;18.550;2023-02-02T07:20:24;6.50;;;3.70;;
16854;SDS011;8543;54.522;18.550;2023-02-02T07:22:50;7.90;;;4.00;;
16854;SDS011;8543;54.522;18.550;2023-02-02T07:25:16;7.90;;;3.60;;
16854;SDS011;8543;54.522;18.550;2023-02-02T07:27:41;7.90;;;3.60;;
16854;SDS011;8543;54.522;18.550;2023-02-02T07:30:07;6.80;;;3.40;;
16854;SDS011;8543;54.522;18.550;2023-02-02T07:32:33;7.00;;;3.90;;
16854;SDS011;8543;54.522;18.550;2023-02-02T07:34:58;8.10;;;3.90;;
16854;SDS011;8543;54.522;18.550;2023-02-02T07:37:24;7.00;;;3.70;;
16854;SDS011;8543;54.522;18.550;2023-02-02T07:39:49;6.40;;;3.60;;
16854;SDS011;8543;54.522;18.550;2023-02-02T07:42:15;7.20;;;4.40;;
16854;SDS011;8543;54.522;18.550;2023-02-02T07:44:40;8.50;;;4.20;;
16854;SDS011;8543;54.522;18.550;2023-02-02T07:47:06;6.60;;;3.60;;
16854;SDS011;8543;54.522;18.550;2023-02-02T07:49:31;5.90;;;4.00;;
16854;SDS011;8543;54.522;18.550;2023-02-02T07:51:56;6.50;;;4.00;;
16854;SDS011;8543;54.522;18.550;2023-02-02T07:54:22;7.50;;;4.30;;
16854;SDS011;8543;54.522;18.550;2023-02-02T07:56:48;8.40;;;4.60;;
16854;SDS011;8543;54.522;18.550;2023-02-02T07:59:14;8.80;;;5.10;;
16854;SDS011;8543;54.522;18.550;2023-02-02T08:01:40;9.50;;;5.00;;
16854;SDS011;8543;54.522;18.550;2023-02-02T08:04:05;9.20;;;5.20;;
16854;SDS011;8543;54.522;18.550;2023-02-02T08:06:32;9.60;;;5.40;;
16854;SDS011;8543;54.522;18.550;2023-02-02T08:09:00;11.70;;;5.70;;
16854;SDS011;8543;54.522;18.550;2023-02-02T08:11:26;10.40;;;5.80;;
16854;SDS011;8543;54.522;18.550;2023-02-02T08:13:53;12.60;;;6.70;;
16854;SDS011;8543;54.522;18.550;2023-02-02T08:16:21;8.40;;;5.00;;
16854;SDS011;8543;54.522;18.550;2023-02-02T08:19:02;8.40;;;4.90;;
16854;SDS011;8543;54.522;18.550;2023-02-02T08:21:27;7.50;;;4.50;;
16854;SDS011;8543;54.522;18.550;2023-02-02T08:23:53;7.80;;;3.60;;
16854;SDS011;8543;54.522;18.550;2023-02-02T08:26:22;7.90;;;4.70;;
16854;SDS011;8543;54.522;18.550;2023-02-02T08:28:54;7.30;;;4.00;;
16854;SDS011;8543;54.522;18.550;2023-02-02T08:31:22;8.80;;;4.20;;
16854;SDS011;8543;54.522;18.550;2023-02-02T08:33:49;7.20;;;3.50;;
16854;SDS011;8543;54.522;18.550;2023-02-02T08:36:19;7.30;;;3.30;;
16854;SDS011;8543;54.522;18.550;2023-02-02T08:38:46;9.10;;;3.80;;
16854;SDS011;8543;54.522;18.550;2023-02-02T08:41:12;10.30;;;4.70;;
16854;SDS011;8543;54.522;18.550;2023-02-02T08:43:40;8.30;;;4.50;;
16854;SDS011;8543;54.522;18.550;2023-02-02T08:46:06;7.20;;;3.70;;
16854;SDS011;8543;54.522;18.550;2023-02-02T08:48:32;7.60;;;3.80;;
16854;SDS011;8543;54.522;18.550;2023-02-02T08:50:58;7.70;;;3.50;;
16854;SDS011;8543;54.522;18.550;2023-02-02T08:53:24;7.60;;;3.80;;
16854;SDS011;8543;54.522;18.550;2023-02-02T08:56:00;7.00;;;3.80;;
16854;SDS011;8543;54.522;18.550;2023-02-02T08:58:29;7.60;;;3.70;;
16854;SDS011;8543;54.522;18.550;2023-02-02T09:01:02;7.50;;;3.50;;
16854;SDS011;8543;54.522;18.550;2023-02-02T09:03:31;6.90;;;3.60;;
16854;SDS011;8543;54.522;18.550;2023-02-02T09:05:57;7.40;;;3.70;;
16854;SDS011;8543;54.522;18.550;2023-02-02T09:08:22;7.10;;;3.20;;
16854;SDS011;8543;54.522;18.550;2023-02-02T09:10:48;6.90;;;3.20;;
16854;SDS011;8543;54.522;18.550;2023-02-02T09:13:13;7.40;;;3.10;;
16854;SDS011;8543;54.522;18.550;2023-02-02T09:15:39;4.90;;;2.70;;
16854;SDS011;8543;54.522;18.550;2023-02-02T09:18:04;5.40;;;2.30;;
16854;SDS011;8543;54.522;18.550;2023-02-02T09:20:29;5.70;;;2.50;;
16854;SDS011;8543;54.522;18.550;2023-02-02T09:22:56;5.60;;;2.20;;
16854;SDS011;8543;54.522;18.550;2023-02-02T09:25:23;7.00;;;2.50;;
16854;SDS011;8543;54.522;18.550;2023-02-02T09:27:49;6.40;;;2.30;;
16854;SDS011;8543;54.522;18.550;2023-02-02T09:30:15;7.50;;;2.50;;
16854;SDS011;8543;54.522;18.550;2023-02-02T09:32:41;5.50;;;2.50;;
16854;SDS011;8543;54.522;18.550;2023-02-02T09:35:06;6.50;;;2.70;;
16854;SDS011;8543;54.522;18.550;2023-02-02T09:37:32;4.50;;;2.20;;
16854;SDS011;8543;54.522;18.550;2023-02-02T09:39:58;3.40;;;2.00;;
16854;SDS011;8543;54.522;18.550;2023-02-02T09:42:43;5.80;;;2.30;;
16854;SDS011;8543;54.522;18.550;2023-02-02T09:51:04;4.10;;;1.70;;
16854;SDS011;8543;54.522;18.550;2023-02-02T09:53:38;5.30;;;1.80;;
16854;SDS011;8543;54.522;18.550;2023-02-02T09:56:07;1.90;;;1.20;;
16854;SDS011;8543;54.522;18.550;2023-02-02T09:58:47;2.20;;;1.20;;
16854;SDS011;8543;54.522;18.550;2023-02-02T10:01:16;2.70;;;1.20;;
16854;SDS011;8543;54.522;18.550;2023-02-02T10:03:50;3.20;;;1.50;;
16854;SDS011;8543;54.522;18.550;2023-02-02T10:06:38;3.40;;;1.50;;
16854;SDS011;8543;54.522;18.550;2023-02-02T10:09:09;3.10;;;1.80;;
16854;SDS011;8543;54.522;18.550;2023-02-02T10:11:49;4.00;;;1.70;;
16854;SDS011;8543;54.522;18.550;2023-02-02T10:14:18;4.60;;;1.90;;
16854;SDS011;8543;54.522;18.550;2023-02-02T10:17:22;4.20;;;1.80;;
16854;SDS011;8543;54.522;18.550;2023-02-02T10:19:49;4.40;;;1.80;;
16854;SDS011;8543;54.522;18.550;2023-02-02T10:22:19;3.80;;;1.80;;
16854;SDS011;8543;54.522;18.550;2023-02-02T10:24:46;2.60;;;1.50;;
16854;SDS011;8543;54.522;18.550;2023-02-02T10:27:13;3.10;;;1.70;;
16854;SDS011;8543;54.522;18.550;2023-02-02T10:29:54;4.50;;;2.60;;
16854;SDS011;8543;54.522;18.550;2023-02-02T10:41:01;4.90;;;2.20;;
16854;SDS011;8543;54.522;18.550;2023-02-02T10:43:36;4.80;;;2.40;;
16854;SDS011;8543;54.522;18.550;2023-02-02T10:46:15;4.30;;;2.20;;
16854;SDS011;8543;54.522;18.550;2023-02-02T10:48:42;5.50;;;2.20;;
16854;SDS011;8543;54.522;18.550;2023-02-02T10:53:49;4.50;;;1.70;;
16854;SDS011;8543;54.522;18.550;2023-02-02T10:56:17;6.20;;;2.20;;
16854;SDS011;8543;54.522;18.550;2023-02-02T10:58:51;4.30;;;1.80;;
16854;SDS011;8543;54.522;18.550;2023-02-02T11:01:39;4.40;;;1.60;;
16854;SDS011;8543;54.522;18.550;2023-02-02T11:04:04;3.60;;;1.30;;
16854;SDS011;8543;54.522;18.550;2023-02-02T11:06:49;8.40;;;2.00;;
16854;SDS011;8543;54.522;18.550;2023-02-02T11:09:24;5.90;;;1.60;;
16854;SDS011;8543;54.522;18.550;2023-02-02T11:17:20;8.90;;;2.00;;
16854;SDS011;8543;54.522;18.550;2023-02-02T11:19:47;4.70;;;1.60;;
16854;SDS011;8543;54.522;18.550;2023-02-02T11:22:32;6.20;;;1.60;;
16854;SDS011;8543;54.522;18.550;2023-02-02T11:25:20;4.30;;;1.60;;
16854;SDS011;8543;54.522;18.550;2023-02-02T11:27:51;2.40;;;1.40;;
16854;SDS011;8543;54.522;18.550;2023-02-02T11:30:25;2.10;;;1.30;;
16854;SDS011;8543;54.522;18.550;2023-02-02T11:32:58;3.10;;;1.10;;
16854;SDS011;8543;54.522;18.550;2023-02-02T11:35:25;4.30;;;1.50;;
16854;SDS011;8543;54.522;18.550;2023-02-02T11:37:52;3.80;;;1.50;;
16854;SDS011;8543;54.522;18.550;2023-02-02T11:40:33;3.40;;;1.50;;
16854;SDS011;8543;54.522;18.550;2023-02-02T11:43:01;1.90;;;1.10;;
16854;SDS011;8543;54.522;18.550;2023-02-02T11:45:36;3.70;;;1.20;;
16854;SDS011;8543;54.522;18.550;2023-02-02T11:50:43;6.90;;;1.50;;
16854;SDS011;8543;54.522;18.550;2023-02-02T11:53:21;4.50;;;1.50;;
16854;SDS011;8543;54.522;18.550;2023-02-02T11:55:51;2.50;;;1.40;;
16854;SDS011;8543;54.522;18.550;2023-02-02T11:58:24;6.20;;;1.70;;
16854;SDS011;8543;54.522;18.550;2023-02-02T12:00:58;5.20;;;1.50;;
16854;SDS011;8543;54.522;18.550;2023-02-02T12:03:29;2.50;;;1.60;;
16854;SDS011;8543;54.522;18.550;2023-02-02T12:05:56;3.00;;;1.70;;
16854;SDS011;8543;54.522;18.550;2023-02-02T12:08:22;8.80;;;2.00;;
16854;SDS011;8543;54.522;18.550;2023-02-02T12:10:58;5.50;;;1.80;;
16854;SDS011;8543;54.522;18.550;2023-02-02T12:19:04;6.40;;;2.00;;
16854;SDS011;8543;54.522;18.550;2023-02-02T12:21:42;6.90;;;2.00;;
16854;SDS011;8543;54.522;18.550;2023-02-02T12:24:33;7.00;;;2.00;;
16854;SDS011;8543;54.522;18.550;2023-02-02T12:27:06;4.20;;;1.80;;
16854;SDS011;8543;54.522;18.550;2023-02-02T12:32:52;5.90;;;2.30;;
16854;SDS011;8543;54.522;18.550;2023-02-02T12:38:02;4.80;;;1.90;;
16854;SDS011;8543;54.522;18.550;2023-02-02T12:41:00;4.00;;;1.60;;
16854;SDS011;8543;54.522;18.550;2023-02-02T12:46:13;6.50;;;1.60;;
16854;SDS011;8543;54.522;18.550;2023-02-02T12:57:11;5.60;;;1.80;;
16854;SDS011;8543;54.522;18.550;2023-02-02T13:10:05;4.80;;;1.60;;
16854;SDS011;8543;54.522;18.550;2023-02-02T13:12:38;2.40;;;1.30;;
16854;SDS011;8543;54.522;18.550;2023-02-02T13:15:06;5.20;;;1.60;;
16854;SDS011;8543;54.522;18.550;2023-02-02T13:20:29;3.30;;;1.40;;
16854;SDS011;8543;54.522;18.550;2023-02-02T13:23:26;2.30;;;1.30;;
16854;SDS011;8543;54.522;18.550;2023-02-02T13:25:52;2.90;;;1.40;;
16854;SDS011;8543;54.522;18.550;2023-02-02T13:28:31;2.40;;;1.40;;
16854;SDS011;8543;54.522;18.550;2023-02-02T13:30:59;5.20;;;1.40;;
16854;SDS011;8543;54.522;18.550;2023-02-02T13:33:29;3.90;;;1.50;;
16854;SDS011;8543;54.522;18.550;2023-02-02T13:35:57;2.80;;;1.60;;
16854;SDS011;8543;54.522;18.550;2023-02-02T13:38:28;4.50;;;1.70;;
16854;SDS011;8543;54.522;18.550;2023-02-02T13:40:56;2.50;;;1.30;;
16854;SDS011;8543;54.522;18.550;2023-02-02T13:51:44;4.80;;;1.90;;
16854;SDS011;8543;54.522;18.550;2023-02-02T14:00:03;6.10;;;1.60;;
16854;SDS011;8543;54.522;18.550;2023-02-02T14:02:58;3.70;;;1.50;;
16854;SDS011;8543;54.522;18.550;2023-02-02T14:05:35;4.50;;;1.80;;
16854;SDS011;8543;54.522;18.550;2023-02-02T14:08:19;4.10;;;1.70;;
16854;SDS011;8543;54.522;18.550;2023-02-02T14:13:19;6.00;;;1.90;;
16854;SDS011;8543;54.522;18.550;2023-02-02T14:16:06;4.20;;;1.90;;
16854;SDS011;8543;54.522;18.550;2023-02-02T14:34:53;6.90;;;2.20;;
16854;SDS011;8543;54.522;18.550;2023-02-02T14:45:48;7.70;;;2.70;;
16854;SDS011;8543;54.522;18.550;2023-02-02T14:48:36;5.70;;;2.60;;
16854;SDS011;8543;54.522;18.550;2023-02-02T14:53:40;8.70;;;2.60;;
16854;SDS011;8543;54.522;18.550;2023-02-02T14:56:18;7.60;;;2.40;;
16854;SDS011;8543;54.522;18.550;2023-02-02T14:58:45;4.90;;;2.10;;
16854;SDS011;8543;54.522;18.550;2023-02-02T15:03:52;10.40;;;2.90;;
16854;SDS011;8543;54.522;18.550;2023-02-02T15:06:26;8.70;;;3.10;;
16854;SDS011;8543;54.522;18.550;2023-02-02T15:22:30;6.20;;;2.40;;
16854;SDS011;8543;54.522;18.550;2023-02-02T15:25:00;5.40;;;2.40;;
16854;SDS011;8543;54.522;18.550;2023-02-02T15:27:31;7.20;;;2.30;;
16854;SDS011;8543;54.522;18.550;2023-02-02T15:29:59;5.10;;;2.60;;
16854;SDS011;8543;54.522;18.550;2023-02-02T15:32:27;6.40;;;2.60;;
16854;SDS011;8543;54.522;18.550;2023-02-02T15:34:57;8.80;;;3.10;;
16854;SDS011;8543;54.522;18.550;2023-02-02T15:37:27;7.20;;;3.40;;
16854;SDS011;8543;54.522;18.550;2023-02-02T15:40:00;7.30;;;3.10;;
16854;SDS011;8543;54.522;18.550;2023-02-02T15:42:45;5.80;;;2.90;;
16854;SDS011;8543;54.522;18.550;2023-02-02T15:47:54;3.10;;;1.60;;
16854;SDS011;8543;54.522;18.550;2023-02-02T15:50:21;5.80;;;2.70;;
16854;SDS011;8543;54.522;18.550;2023-02-02T15:52:48;6.30;;;2.90;;
16854;SDS011;8543;54.522;18.550;2023-02-02T15:55:18;6.60;;;2.40;;
16854;SDS011;8543;54.522;18.550;2023-02-02T15:57:46;5.20;;;2.30;;
16854;SDS011;8543;54.522;18.550;2023-02-02T16:02:59;6.50;;;2.80;;
16854;SDS011;8543;54.522;18.550;2023-02-02T16:08:39;3.90;;;2.40;;
16854;SDS011;8543;54.522;18.550;2023-02-02T16:13:31;6.50;;;2.60;;
16854;SDS011;8543;54.522;18.550;2023-02-02T16:15:58;5.90;;;3.00;;
16854;SDS011;8543;54.522;18.550;2023-02-02T16:18:25;6.20;;;3.00;;
16854;SDS011;8543;54.522;18.550;2023-02-02T16:20:50;6.90;;;2.80;;
16854;SDS011;8543;54.522;18.550;2023-02-02T16:23:19;6.80;;;2.50;;
16854;SDS011;8543;54.522;18.550;2023-02-02T16:25:49;4.90;;;2.30;;
16854;SDS011;8543;54.522;18.550;2023-02-02T16:28:16;4.20;;;1.80;;
16854;SDS011;8543;54.522;18.550;2023-02-02T16:30:42;4.10;;;2.00;;
16854;SDS011;8543;54.522;18.550;2023-02-02T16:36:51;6.70;;;2.70;;
16854;SDS011;8543;54.522;18.550;2023-02-02T16:38:54;6.50;;;2.50;;
16854;SDS011;8543;54.522;18.550;2023-02-02T16:41:29;7.30;;;3.00;;
16854;SDS011;8543;54.522;18.550;2023-02-02T16:47:33;5.50;;;3.10;;
16854;SDS011;8543;54.522;18.550;2023-02-02T16:52:31;4.80;;;2.30;;
16854;SDS011;8543;54.522;18.550;2023-02-02T16:54:57;6.80;;;3.30;;
16854;SDS011;8543;54.522;18.550;2023-02-02T16:57:27;4.20;;;2.10;;
16854;SDS011;8543;54.522;18.550;2023-02-02T16:59:56;4.90;;;2.10;;
16854;SDS011;8543;54.522;18.550;2023-02-02T17:02:30;4.00;;;2.00;;
16854;SDS011;8543;54.522;18.550;2023-02-02T17:05:06;4.70;;;2.20;;
16854;SDS011;8543;54.522;18.550;2023-02-02T17:07:39;5.20;;;2.10;;
16854;SDS011;8543;54.522;18.550;2023-02-02T17:10:39;6.30;;;2.30;;
16854;SDS011;8543;54.522;18.550;2023-02-02T17:18:28;5.60;;;2.50;;
16854;SDS011;8543;54.522;18.550;2023-02-02T17:20:54;7.40;;;3.10;;
16854;SDS011;8543;54.522;18.550;2023-02-02T17:23:28;8.40;;;3.40;;
16854;SDS011;8543;54.522;18.550;2023-02-02T17:25:55;5.60;;;3.00;;
16854;SDS011;8543;54.522;18.550;2023-02-02T17:28:21;7.20;;;3.20;;
16854;SDS011;8543;54.522;18.550;2023-02-02T17:30:50;6.30;;;2.90;;
16854;SDS011;8543;54.522;18.550;2023-02-02T17:33:19;6.90;;;2.70;;
16854;SDS011;8543;54.522;18.550;2023-02-02T17:35:45;7.50;;;2.80;;
16854;SDS011;8543;54.522;18.550;2023-02-02T17:38:11;6.20;;;2.50;;
16854;SDS011;8543;54.522;18.550;2023-02-02T17:40:37;7.40;;;2.60;;